Time;durP1;ratioP1;P1;durP2;ratioP2;P2;SDS_P1;SDS_P2;PMS_P1;PMS_P2;Temp;Humidity;BMP_temperature;BMP_pressure;BME280_temperature;BME280_humidity;BME280_pressure;Samples;Min_cycle;Max_cycle;Signal;HPM_P1;HPM_P2
2023/03/11 00:01:25;;;;;;;6.13;5.00;;;1.60;99.90;;;;;;5010482;28;20567;-58
2023/03/11 00:03:50;;;;;;;8.15;4.72;;;1.60;99.90;;;;;;4998541;28;20026;-58
2023/03/11 00:06:16;;;;;;;12.32;5.38;;;1.60;99.90;;;;;;5014998;28;20030;-58
2023/03/11 00:08:42;;;;;;;6.70;5.28;;;1.60;99.90;;;;;;5000855;28;20034;-58
2023/03/11 00:11:07;;;;;;;5.88;4.88;;;1.50;99.90;;;;;;5005453;28;20026;-59
2023/03/11 00:13:35;;;;;;;8.13;5.38;;;1.50;99.90;;;;;;5008836;28;20026;-58
2023/03/11 00:16:00;;;;;;;5.78;4.65;;;1.50;99.90;;;;;;4995914;28;20026;-57
2023/03/11 00:18:30;;;;;;;5.03;4.32;;;1.50;99.90;;;;;;5014227;28;20544;-57
2023/03/11 00:20:57;;;;;;;5.90;5.30;;;1.50;99.90;;;;;;4997134;28;20036;-58
2023/03/11 00:23:23;;;;;;;4.95;4.18;;;1.50;99.90;;;;;;5010378;28;20104;-58
2023/03/11 00:25:48;;;;;;;5.45;4.63;;;1.50;99.90;;;;;;5006870;28;20026;-59
2023/03/11 00:28:15;;;;;;;5.30;3.80;;;1.50;99.90;;;;;;5003194;28;20057;-57
2023/03/11 00:30:43;;;;;;;4.70;4.18;;;1.50;99.90;;;;;;5017954;28;20466;-58
2023/03/11 00:33:14;;;;;;;4.78;3.58;;;1.50;99.90;;;;;;5010901;28;20359;-57
2023/03/11 00:35:40;;;;;;;;;;;1.60;99.90;;;;;;5016269;28;20492;-58
2023/03/11 00:38:10;;;;;;;5.95;4.93;;;1.50;99.90;;;;;;5015586;28;20104;-57
2023/03/11 00:40:40;;;;;;;4.43;4.03;;;1.60;99.90;;;;;;5019024;28;20986;-59
2023/03/11 00:43:06;;;;;;;4.55;4.15;;;1.60;99.90;;;;;;5018299;28;20044;-57
2023/03/11 00:45:32;;;;;;;5.55;4.05;;;1.60;99.90;;;;;;5019336;28;20030;-58
2023/03/11 00:47:58;;;;;;;4.43;3.50;;;1.60;99.90;;;;;;5020081;28;20030;-59
2023/03/11 00:50:28;;;;;;;4.40;3.65;;;1.60;99.90;;;;;;5016961;28;20393;-59
2023/03/11 00:52:54;;;;;;;4.90;3.60;;;1.60;99.90;;;;;;5018566;28;20037;-57
2023/03/11 00:55:25;;;;;;;5.70;3.55;;;1.60;99.90;;;;;;5018424;28;20576;-57
2023/03/11 00:57:53;;;;;;;4.85;3.58;;;1.60;99.90;;;;;;5019401;28;20022;-58
2023/03/11 01:00:20;;;;;;;3.72;3.28;;;1.60;99.90;;;;;;5021170;28;20026;-57
2023/03/11 01:02:46;;;;;;;6.63;3.25;;;1.70;99.90;;;;;;5020065;28;20037;-59
2023/03/11 01:05:12;;;;;;;3.78;2.78;;;1.70;99.90;;;;;;5019202;28;20372;-57
2023/03/11 01:07:38;;;;;;;3.95;3.50;;;1.70;99.90;;;;;;5019124;28;20038;-58
2023/03/11 01:10:05;;;;;;;3.83;3.42;;;1.70;99.90;;;;;;5019341;28;20026;-57
2023/03/11 01:12:31;;;;;;;4.57;2.92;;;1.70;99.90;;;;;;5016928;28;20107;-57
2023/03/11 01:14:56;;;;;;;3.45;3.08;;;1.70;99.90;;;;;;5019133;28;20118;-59
2023/03/11 01:17:22;;;;;;;4.60;3.50;;;1.60;99.90;;;;;;5019587;28;20029;-58
2023/03/11 01:19:48;;;;;;;4.78;3.50;;;1.60;99.90;;;;;;5017653;28;20454;-57
2023/03/11 01:22:14;;;;;;;3.03;2.72;;;1.60;99.90;;;;;;5020015;28;20045;-56
2023/03/11 01:24:40;;;;;;;3.17;2.72;;;1.60;99.90;;;;;;5020791;28;20030;-57
2023/03/11 01:27:05;;;;;;;3.17;2.83;;;1.60;99.90;;;;;;4995515;28;20518;-57
2023/03/11 01:29:31;;;;;;;4.20;3.45;;;1.60;99.90;;;;;;5015414;28;20046;-58
2023/03/11 01:31:58;;;;;;;3.70;2.83;;;1.60;99.90;;;;;;5007854;28;20030;-58
2023/03/11 01:34:23;;;;;;;5.15;3.03;;;1.60;99.90;;;;;;5002410;28;20030;-57
2023/03/11 01:36:49;;;;;;;3.42;3.13;;;1.60;99.90;;;;;;5014123;28;20025;-59
2023/03/11 01:39:14;;;;;;;2.63;2.40;;;1.60;99.90;;;;;;5000194;28;20109;-58
2023/03/11 01:41:40;;;;;;;3.20;2.90;;;1.60;99.90;;;;;;5013519;28;20033;-58
2023/03/11 01:44:06;;;;;;;4.00;2.60;;;1.60;99.90;;;;;;5004789;28;20121;-60
2023/03/11 01:46:50;;;;;;;3.53;2.75;;;1.60;99.90;;;;;;5000197;28;20025;-58
2023/03/11 01:49:16;;;;;;;3.22;2.78;;;1.60;99.90;;;;;;5010262;28;20464;-57
2023/03/11 01:51:47;;;;;;;3.80;3.13;;;1.60;99.90;;;;;;4996956;28;20026;-57
2023/03/11 01:54:23;;;;;;;3.05;2.65;;;1.60;99.90;;;;;;5015718;28;20048;-58
2023/03/11 01:56:50;;;;;;;3.33;3.03;;;1.60;99.90;;;;;;4998763;28;20453;-57
2023/03/11 01:59:21;;;;;;;2.67;2.20;;;1.60;99.90;;;;;;5012030;28;20499;-58
2023/03/11 02:02:05;;;;;;;4.28;2.55;;;1.60;99.90;;;;;;5006155;28;20050;-58
2023/03/11 02:04:33;;;;;;;3.38;2.92;;;1.60;99.90;;;;;;5007204;28;20033;-59
2023/03/11 02:07:00;;;;;;;2.80;2.25;;;1.60;99.90;;;;;;5011528;28;20424;-59
2023/03/11 02:09:26;;;;;;;5.57;2.17;;;1.60;99.90;;;;;;5000513;28;20029;-57
2023/03/11 02:11:52;;;;;;;3.08;2.55;;;1.60;99.90;;;;;;5016063;28;20316;-58
2023/03/11 02:14:19;;;;;;;3.25;2.38;;;1.50;99.90;;;;;;5006963;28;20038;-57
2023/03/11 02:16:45;;;;;;;3.03;2.47;;;1.50;99.90;;;;;;5004255;28;20105;-58
2023/03/11 02:19:51;;;;;;;2.83;2.50;;;1.50;99.90;;;;;;5016557;28;20152;-58
2023/03/11 02:22:17;;;;;;;2.83;2.40;;;1.50;99.90;;;;;;4947287;28;20042;-57
2023/03/11 02:24:56;;;;;;;2.22;1.98;;;1.50;99.90;;;;;;5016639;28;20654;-57
2023/03/11 02:27:24;;;;;;;2.78;2.10;;;1.50;99.90;;;;;;4996025;28;20022;-57
2023/03/11 02:29:50;;;;;;;3.67;3.10;;;1.50;99.90;;;;;;5014283;28;20037;-57
2023/03/11 02:32:17;;;;;;;2.17;1.83;;;1.50;99.90;;;;;;5000943;28;20509;-56
2023/03/11 02:34:43;;;;;;;2.47;2.28;;;1.50;99.90;;;;;;5007614;28;20437;-56
2023/03/11 02:37:11;;;;;;;2.85;2.05;;;1.50;99.90;;;;;;5016506;28;20027;-57
2023/03/11 02:39:43;;;;;;;2.47;1.88;;;1.50;99.90;;;;;;4999249;28;20386;-57
2023/03/11 02:42:26;;;;;;;2.88;1.80;;;1.50;99.90;;;;;;4993632;28;20037;-58
2023/03/11 02:45:08;;;;;;;2.13;1.65;;;1.50;99.90;;;;;;5013795;28;20562;-56
2023/03/11 02:47:35;;;;;;;2.92;1.80;;;1.50;99.90;;;;;;5001694;28;20084;-57
2023/03/11 02:50:01;;;;;;;1.95;1.65;;;1.50;99.90;;;;;;5008508;28;20828;-57
2023/03/11 02:52:32;;;;;;;2.42;1.73;;;1.50;99.90;;;;;;5011234;28;20038;-58
2023/03/11 02:54:57;;;;;;;1.50;1.40;;;1.50;99.90;;;;;;5001463;28;20441;-57
2023/03/11 02:57:23;;;;;;;2.30;1.50;;;1.50;99.90;;;;;;5017834;28;20156;-58
2023/03/11 02:59:49;;;;;;;1.40;1.30;;;1.50;99.90;;;;;;4997743;28;20085;-56
2023/03/11 03:02:15;;;;;;;4.03;2.67;;;1.40;99.90;;;;;;5013148;28;20058;-57
2023/03/11 03:04:40;;;;;;;1.85;1.65;;;1.40;99.90;;;;;;5009941;28;20045;-56
2023/03/11 03:07:06;;;;;;;1.90;1.38;;;1.40;99.90;;;;;;5002457;28;20030;-58
2023/03/11 03:09:33;;;;;;;1.67;1.50;;;1.40;99.90;;;;;;5018322;28;20033;-56
2023/03/11 03:11:59;;;;;;;1.27;1.10;;;1.40;99.90;;;;;;4997685;28;20045;-58
2023/03/11 03:14:24;;;;;;;2.10;1.70;;;1.40;99.90;;;;;;5011797;28;20041;-57
2023/03/11 03:16:50;;;;;;;2.10;1.50;;;1.40;99.90;;;;;;5007029;28;20033;-60
2023/03/11 03:19:15;;;;;;;2.17;1.33;;;1.40;99.90;;;;;;5000767;28;20463;-57
2023/03/11 03:21:41;;;;;;;3.60;1.52;;;1.40;99.90;;;;;;5016946;28;20033;-57
2023/03/11 03:24:07;;;;;;;1.88;1.40;;;1.40;99.90;;;;;;5018759;28;20465;-58
2023/03/11 03:26:32;;;;;;;1.75;1.48;;;1.40;99.90;;;;;;4999465;28;20057;-58
2023/03/11 03:28:58;;;;;;;2.40;1.48;;;1.30;99.90;;;;;;5007817;28;20034;-57
2023/03/11 03:31:24;;;;;;;3.47;1.25;;;1.30;99.90;;;;;;5012189;28;20031;-58
2023/03/11 03:33:49;;;;;;;3.85;2.92;;;1.30;99.90;;;;;;4999442;28;20030;-57
2023/03/11 03:36:15;;;;;;;1.58;1.48;;;1.30;99.90;;;;;;5015270;28;20044;-59
2023/03/11 03:38:41;;;;;;;2.05;1.77;;;1.30;99.90;;;;;;4999249;28;20038;-59
2023/03/11 03:41:07;;;;;;;1.55;1.40;;;1.30;99.90;;;;;;5009864;28;20061;-59
2023/03/11 03:43:33;;;;;;;1.90;1.65;;;1.30;99.90;;;;;;5006032;28;20066;-57
2023/03/11 03:46:01;;;;;;;4.78;1.60;;;1.20;99.90;;;;;;4998183;28;20610;-57
2023/03/11 03:48:27;;;;;;;2.15;1.95;;;1.20;99.90;;;;;;5015229;28;20049;-58
2023/03/11 03:50:52;;;;;;;1.80;1.45;;;1.20;99.90;;;;;;4997998;28;20533;-57
2023/03/11 03:53:18;;;;;;;1.95;1.60;;;1.20;99.90;;;;;;5010190;28;20037;-57
2023/03/11 03:55:44;;;;;;;2.40;1.50;;;1.20;99.90;;;;;;5007782;28;20453;-57
2023/03/11 03:58:09;;;;;;;1.63;1.52;;;1.20;99.90;;;;;;5001420;28;20037;-57
2023/03/11 04:00:35;;;;;;;2.05;1.70;;;1.10;99.90;;;;;;5014948;28;20045;-59
2023/03/11 04:03:01;;;;;;;2.42;1.45;;;1.10;99.90;;;;;;4995277;28;20110;-58
2023/03/11 04:05:27;;;;;;;2.40;1.63;;;1.10;99.90;;;;;;5009819;28;20499;-57
2023/03/11 04:07:53;;;;;;;2.45;1.60;;;1.10;99.90;;;;;;5003626;28;20447;-58
2023/03/11 04:10:19;;;;;;;1.92;1.60;;;1.00;99.90;;;;;;4997281;28;20026;-57
2023/03/11 04:12:44;;;;;;;3.13;1.98;;;1.00;99.90;;;;;;5015944;28;20864;-57
2023/03/11 04:15:10;;;;;;;2.65;2.15;;;0.90;99.90;;;;;;4999930;28;20651;-57
2023/03/11 04:17:37;;;;;;;2.10;1.65;;;0.90;99.90;;;;;;5013152;28;20034;-57
2023/03/11 04:20:06;;;;;;;2.05;1.75;;;0.90;99.90;;;;;;5009797;28;20033;-59
2023/03/11 04:22:31;;;;;;;3.45;1.85;;;0.90;99.90;;;;;;5007782;28;20065;-57
2023/03/11 04:24:57;;;;;;;2.28;2.05;;;0.90;99.90;;;;;;5022875;28;20060;-57
2023/03/11 04:27:22;;;;;;;2.00;1.80;;;0.90;99.90;;;;;;5003283;28;20036;-58
2023/03/11 04:29:48;;;;;;;2.33;1.80;;;1.00;99.90;;;;;;5020384;28;20409;-57
2023/03/11 04:32:14;;;;;;;2.70;1.90;;;1.00;99.90;;;;;;5006879;28;20034;-58
2023/03/11 04:34:39;;;;;;;2.70;2.30;;;1.00;99.90;;;;;;5008008;28;20030;-59
2023/03/11 04:37:05;;;;;;;2.15;1.70;;;1.00;99.90;;;;;;5015284;28;20026;-58
2023/03/11 04:39:31;;;;;;;2.80;2.10;;;1.00;99.90;;;;;;5005730;28;20716;-62
2023/03/11 04:41:57;;;;;;;2.03;1.70;;;1.00;99.90;;;;;;5020064;28;20061;-58
2023/03/11 04:44:22;;;;;;;1.90;1.50;;;1.00;99.90;;;;;;5003697;28;20022;-59
2023/03/11 04:46:48;;;;;;;2.53;1.63;;;1.10;99.90;;;;;;5008497;28;20394;-58
2023/03/11 04:49:13;;;;;;;2.13;1.67;;;1.10;99.90;;;;;;5014362;28;20035;-58
2023/03/11 04:51:39;;;;;;;1.48;1.20;;;1.10;99.90;;;;;;4999787;28;20089;-58
2023/03/11 04:54:05;;;;;;;2.38;1.65;;;1.10;99.90;;;;;;5019144;28;20026;-58
2023/03/11 04:56:30;;;;;;;1.40;1.30;;;1.10;99.90;;;;;;5001452;28;20120;-59
2023/03/11 04:58:56;;;;;;;3.72;1.38;;;1.10;99.90;;;;;;5006256;28;20026;-58
2023/03/11 05:01:22;;;;;;;2.35;1.42;;;1.00;99.90;;;;;;5016252;28;20036;-58
2023/03/11 05:03:47;;;;;;;2.20;1.80;;;1.00;99.90;;;;;;4998894;28;20113;-58
2023/03/11 05:06:13;;;;;;;3.63;1.30;;;0.90;99.90;;;;;;5019123;28;20029;-59
2023/03/11 05:08:39;;;;;;;2.53;1.67;;;0.80;99.90;;;;;;5002109;28;20030;-59
2023/03/11 05:11:05;;;;;;;3.35;1.55;;;0.80;99.90;;;;;;5008770;28;20029;-60
2023/03/11 05:13:30;;;;;;;2.95;1.42;;;0.80;99.90;;;;;;5014394;28;20031;-58
2023/03/11 05:15:56;;;;;;;2.80;1.83;;;0.70;99.90;;;;;;4999668;28;20061;-59
2023/03/11 05:18:21;;;;;;;3.60;1.90;;;0.70;99.90;;;;;;5019720;28;20076;-59
2023/03/11 05:20:47;;;;;;;2.00;1.67;;;0.60;99.90;;;;;;5004617;28;20081;-60
2023/03/11 05:23:13;;;;;;;1.90;1.50;;;0.60;99.90;;;;;;5011516;28;20037;-58
2023/03/11 05:25:38;;;;;;;1.25;1.08;;;0.50;99.90;;;;;;5010006;28;20030;-58
2023/03/11 05:28:04;;;;;;;1.67;1.55;;;0.50;99.90;;;;;;5000715;28;20057;-57
2023/03/11 05:30:30;;;;;;;2.35;1.38;;;0.40;99.90;;;;;;5020394;28;20093;-58
2023/03/11 05:32:56;;;;;;;1.48;1.20;;;0.40;99.90;;;;;;5000202;28;20080;-59
2023/03/11 05:35:22;;;;;;;1.02;0.93;;;0.40;99.90;;;;;;5010094;28;20046;-58
2023/03/11 05:37:52;;;;;;;1.10;1.00;;;0.40;99.90;;;;;;5004873;28;20031;-58
2023/03/11 05:40:18;;;;;;;1.30;1.05;;;0.50;99.90;;;;;;5002248;28;20042;-58
2023/03/11 05:42:44;;;;;;;1.40;1.30;;;0.50;99.90;;;;;;5016795;28;20030;-61
2023/03/11 05:45:10;;;;;;;5.07;1.10;;;0.60;99.90;;;;;;4998271;28;20037;-58
2023/03/11 05:47:35;;;;;;;1.45;0.90;;;0.70;99.90;;;;;;5016168;28;20026;-60
2023/03/11 05:50:01;;;;;;;1.00;0.90;;;0.70;99.90;;;;;;5002717;28;20026;-59
2023/03/11 05:52:29;;;;;;;4.90;1.27;;;0.70;99.90;;;;;;5000694;28;20034;-58
2023/03/11 05:54:55;;;;;;;1.40;0.85;;;0.70;99.90;;;;;;5016038;28;20022;-60
2023/03/11 05:57:20;;;;;;;4.13;1.75;;;0.80;99.90;;;;;;4998867;28;20022;-58
2023/03/11 05:59:46;;;;;;;1.67;1.00;;;0.80;99.90;;;;;;5015015;28;20112;-58
2023/03/11 06:02:11;;;;;;;3.47;1.20;;;0.80;99.90;;;;;;5002386;28;20661;-58
2023/03/11 06:04:37;;;;;;;1.45;0.95;;;0.70;99.90;;;;;;5005407;28;20550;-58
2023/03/11 06:07:03;;;;;;;2.78;1.27;;;0.70;99.90;;;;;;5015381;28;20026;-58
2023/03/11 06:09:29;;;;;;;1.42;1.15;;;0.60;99.90;;;;;;4997825;28;20494;-60
2023/03/11 06:11:54;;;;;;;2.53;1.25;;;0.60;99.90;;;;;;5015211;28;20079;-59
2023/03/11 06:14:20;;;;;;;1.63;1.20;;;0.50;99.90;;;;;;5004415;28;20027;-58
2023/03/11 06:16:45;;;;;;;1.48;0.93;;;0.50;99.90;;;;;;5005424;28;20098;-58
2023/03/11 06:19:11;;;;;;;1.50;1.20;;;0.50;99.90;;;;;;5011928;28;20034;-59
2023/03/11 06:21:37;;;;;;;1.70;1.20;;;0.50;99.90;;;;;;4997257;28;20105;-58
2023/03/11 06:24:03;;;;;;;1.58;1.00;;;0.50;99.90;;;;;;5015288;28;20022;-59
2023/03/11 06:26:29;;;;;;;2.47;1.00;;;0.50;99.90;;;;;;5001669;28;20797;-59
2023/03/11 06:28:55;;;;;;;2.25;1.13;;;0.50;99.90;;;;;;5004999;28;20033;-58
2023/03/11 06:31:24;;;;;;;1.55;1.15;;;0.50;99.90;;;;;;5012955;28;20030;-58
2023/03/11 06:33:51;;;;;;;1.63;1.27;;;0.60;99.90;;;;;;4998180;28;20849;-59
2023/03/11 06:36:18;;;;;;;2.03;1.08;;;0.50;99.90;;;;;;5016818;28;20043;-58
2023/03/11 06:38:45;;;;;;;2.42;1.27;;;0.60;99.90;;;;;;5000114;28;20042;-59
2023/03/11 06:41:11;;;;;;;2.22;1.25;;;0.70;99.90;;;;;;5007528;28;20037;-58
2023/03/11 06:43:38;;;;;;;2.80;1.17;;;0.70;99.90;;;;;;5007851;28;20093;-58
2023/03/11 06:46:16;;;;;;;1.92;1.05;;;0.90;99.90;;;;;;4995730;28;20525;-60
2023/03/11 06:48:43;;;;;;;7.38;5.15;;;1.00;99.90;;;;;;5015477;28;20021;-58
2023/03/11 06:51:09;;;;;;;3.85;2.85;;;1.10;99.90;;;;;;4997600;28;20050;-58
2023/03/11 06:53:35;;;;;;;3.17;1.92;;;1.10;99.90;;;;;;5009346;28;20030;-58
2023/03/11 06:56:03;;;;;;;2.40;2.03;;;1.20;99.90;;;;;;5004749;28;20034;-58
2023/03/11 06:58:30;;;;;;;2.15;1.75;;;1.20;99.90;;;;;;5000981;28;20041;-58
2023/03/11 07:01:01;;;;;;;2.20;1.45;;;1.30;99.90;;;;;;5013903;28;20462;-57
2023/03/11 07:03:27;;;;;;;2.25;1.80;;;1.40;99.90;;;;;;4994947;28;20030;-59
2023/03/11 07:05:53;;;;;;;1.83;1.40;;;1.50;99.90;;;;;;5013204;28;20038;-59
2023/03/11 07:08:18;;;;;;;1.77;1.15;;;1.50;99.90;;;;;;5002681;28;20037;-60
2023/03/11 07:10:45;;;;;;;1.92;1.20;;;1.60;99.90;;;;;;5004862;28;20026;-57
2023/03/11 07:13:11;;;;;;;1.20;1.00;;;1.60;99.90;;;;;;5009752;28;20031;-60
2023/03/11 07:15:37;;;;;;;3.53;1.50;;;1.60;99.90;;;;;;4995463;28;20036;-57
2023/03/11 07:18:02;;;;;;;1.35;1.23;;;1.60;99.90;;;;;;5015494;28;20034;-58
2023/03/11 07:20:28;;;;;;;1.25;0.90;;;1.70;99.90;;;;;;4998136;28;20485;-59
2023/03/11 07:22:53;;;;;;;1.20;0.90;;;1.80;99.90;;;;;;5007084;28;20037;-57
2023/03/11 07:25:19;;;;;;;2.28;1.42;;;1.80;99.90;;;;;;5009991;28;20031;-58
2023/03/11 07:27:45;;;;;;;1.08;0.90;;;1.80;99.90;;;;;;4995921;28;20411;-59
2023/03/11 07:30:11;;;;;;;1.88;1.15;;;1.80;99.90;;;;;;5016803;28;20053;-58
2023/03/11 07:32:36;;;;;;;1.73;0.90;;;1.80;99.90;;;;;;4997331;28;20113;-58
2023/03/11 07:35:02;;;;;;;1.38;1.05;;;1.70;99.90;;;;;;5007234;28;20029;-58
2023/03/11 07:37:28;;;;;;;6.63;1.92;;;1.70;99.90;;;;;;5009390;28;20030;-59
2023/03/11 07:39:53;;;;;;;2.10;1.52;;;1.70;99.90;;;;;;4998490;28;20040;-58
2023/03/11 07:42:19;;;;;;;1.83;1.35;;;1.80;99.90;;;;;;5016577;28;20033;-58
2023/03/11 07:44:44;;;;;;;0.98;0.82;;;1.90;99.90;;;;;;4996895;28;20023;-58
2023/03/11 07:47:10;;;;;;;1.27;0.90;;;2.00;99.90;;;;;;5006634;28;20034;-59
2023/03/11 07:49:36;;;;;;;1.75;1.30;;;2.10;99.90;;;;;;5006111;28;20109;-60
2023/03/11 07:52:01;;;;;;;1.95;1.08;;;2.20;99.90;;;;;;4997844;28;20041;-58
2023/03/11 07:54:27;;;;;;;4.65;1.20;;;2.30;99.90;;;;;;5011810;28;20022;-60
2023/03/11 07:56:52;;;;;;;1.42;1.30;;;2.20;99.90;;;;;;4995487;28;20029;-58
2023/03/11 07:59:18;;;;;;;4.97;1.98;;;2.20;99.90;;;;;;4990184;28;20889;-58
2023/03/11 08:01:46;;;;;;;1.90;1.00;;;2.10;99.90;;;;;;5004399;28;20506;-58
2023/03/11 08:04:13;;;;;;;3.00;1.88;;;2.00;99.90;;;;;;5009786;28;20483;-59
2023/03/11 08:06:41;;;;;;;0.90;0.90;;;2.00;99.90;;;;;;4995454;28;20032;-58
2023/03/11 08:09:07;;;;;;;1.50;0.98;;;2.10;99.90;;;;;;5013940;28;20100;-59
2023/03/11 08:11:34;;;;;;;0.77;0.75;;;2.10;99.90;;;;;;4999014;28;20088;-58
2023/03/11 08:14:00;;;;;;;1.27;0.90;;;2.10;99.90;;;;;;5007096;28;20033;-58
2023/03/11 08:16:26;;;;;;;1.75;0.80;;;2.20;99.90;;;;;;5008348;28;20034;-59
2023/03/11 08:18:52;;;;;;;2.00;0.50;;;2.20;99.90;;;;;;4998578;28;20387;-58
2023/03/11 08:21:21;;;;;;;1.25;1.02;;;2.20;99.90;;;;;;5016262;28;20037;-58
2023/03/11 08:23:47;;;;;;;1.20;0.70;;;2.30;99.90;;;;;;4998169;28;20034;-59
2023/03/11 08:26:16;;;;;;;0.73;0.55;;;2.40;99.90;;;;;;5011367;28;20045;-58
2023/03/11 08:28:42;;;;;;;1.20;0.70;;;2.40;99.90;;;;;;5007963;28;20035;-58
2023/03/11 08:31:23;;;;;;;1.50;0.50;;;2.40;99.90;;;;;;5000662;28;20091;-59
2023/03/11 08:33:50;;;;;;;2.10;1.10;;;2.40;99.90;;;;;;5013416;28;20021;-58
2023/03/11 08:36:16;;;;;;;1.20;0.80;;;2.50;99.90;;;;;;4996167;28;20075;-61
2023/03/11 08:38:42;;;;;;;2.05;0.77;;;2.60;99.90;;;;;;5008828;28;20030;-60
2023/03/11 08:41:08;;;;;;;1.33;0.80;;;2.60;99.90;;;;;;5003447;28;20034;-58
2023/03/11 08:43:34;;;;;;;1.50;0.98;;;2.70;99.90;;;;;;5002324;28;20489;-59
2023/03/11 08:46:01;;;;;;;1.63;0.82;;;2.80;99.90;;;;;;5011787;28;20144;-58
2023/03/11 08:48:27;;;;;;;5.80;1.75;;;2.80;99.90;;;;;;4993182;28;20038;-58
2023/03/11 08:50:53;;;;;;;2.28;0.93;;;3.00;99.90;;;;;;5026175;28;20486;-59
2023/03/11 08:53:19;;;;;;;1.38;1.10;;;3.10;99.90;;;;;;5000334;28;20121;-59
2023/03/11 08:55:44;;;;;;;2.53;1.10;;;3.20;99.90;;;;;;5003261;28;20028;-58
2023/03/11 08:58:10;;;;;;;1.92;1.02;;;3.30;99.10;;;;;;5011128;28;20056;-59
2023/03/11 09:00:36;;;;;;;1.58;1.48;;;3.30;99.30;;;;;;4997712;28;20069;-58
2023/03/11 09:03:01;;;;;;;3.67;1.33;;;3.30;99.50;;;;;;5016688;28;20033;-60
2023/03/11 09:05:27;;;;;;;1.10;0.88;;;3.30;99.60;;;;;;5002835;28;20038;-58
2023/03/11 09:07:53;;;;;;;2.05;1.23;;;3.40;99.60;;;;;;5008954;28;20425;-57
2023/03/11 09:10:18;;;;;;;1.20;0.80;;;3.30;96.80;;;;;;5012599;28;20037;-62
2023/03/11 09:12:44;;;;;;;1.17;0.95;;;3.20;97.40;;;;;;4998784;28;20092;-58
2023/03/11 09:15:09;;;;;;;2.42;1.17;;;3.20;98.60;;;;;;5014711;28;20030;-57
2023/03/11 09:17:35;;;;;;;2.85;1.17;;;3.20;95.20;;;;;;5001517;28;20089;-59
2023/03/11 09:20:01;;;;;;;4.00;2.10;;;3.40;96.40;;;;;;5007931;28;20030;-58
2023/03/11 09:22:27;;;;;;;2.83;1.10;;;3.50;95.60;;;;;;5011678;28;20037;-58
2023/03/11 09:24:53;;;;;;;2.20;1.30;;;3.60;95.20;;;;;;4999621;28;20018;-59
2023/03/11 09:27:18;;;;;;;3.78;1.63;;;3.80;94.70;;;;;;5019472;28;20029;-59
2023/03/11 09:29:44;;;;;;;1.27;1.10;;;3.80;93.80;;;;;;5001205;28;20097;-59
2023/03/11 09:32:14;;;;;;;2.35;0.70;;;3.70;93.90;;;;;;5006952;28;20033;-59
2023/03/11 09:34:40;;;;;;;1.23;0.50;;;3.40;93.50;;;;;;5007530;28;20034;-57
2023/03/11 09:37:06;;;;;;;1.17;0.80;;;3.30;93.70;;;;;;4999121;28;20034;-60
2023/03/11 09:39:31;;;;;;;2.13;1.05;;;3.30;94.70;;;;;;5019152;28;20112;-57
2023/03/11 09:42:02;;;;;;;1.20;1.05;;;3.20;93.50;;;;;;4999226;28;20034;-59
2023/03/11 09:44:50;;;;;;;1.25;0.70;;;3.10;94.50;;;;;;5012583;28;20026;-58
2023/03/11 09:47:23;;;;;;;1.05;0.68;;;3.00;94.70;;;;;;5008367;28;20080;-60
2023/03/11 09:50:03;;;;;;;3.50;0.95;;;3.00;94.20;;;;;;5007950;28;20041;-57
2023/03/11 09:53:00;;;;;;;3.10;0.95;;;3.10;94.10;;;;;;5007168;28;20117;-60
2023/03/11 09:55:47;;;;;;;0.93;0.65;;;3.20;94.70;;;;;;5001982;28;20034;-58
2023/03/11 09:58:35;;;;;;;1.17;0.80;;;3.20;94.90;;;;;;5018307;28;20453;-58
2023/03/11 10:01:07;;;;;;;1.55;0.90;;;3.50;94.50;;;;;;5002972;28;20029;-58
2023/03/11 10:03:34;;;;;;;1.65;0.80;;;3.60;94.20;;;;;;5017343;28;20041;-58
2023/03/11 10:06:07;;;;;;;1.58;0.70;;;3.60;93.80;;;;;;5002539;28;20097;-58
2023/03/11 10:08:38;;;;;;;1.70;0.82;;;3.50;94.00;;;;;;5013154;28;20446;-57
2023/03/11 10:11:31;;;;;;;1.20;0.57;;;3.40;93.80;;;;;;5002807;28;20026;-58
2023/03/11 10:14:19;;;;;;;1.92;0.70;;;3.10;92.60;;;;;;4960103;28;20026;-59
2023/03/11 10:17:04;;;;;;;1.00;0.70;;;2.90;93.00;;;;;;4995614;28;20566;-59
2023/03/11 10:19:40;;;;;;;2.15;0.70;;;2.80;93.90;;;;;;5005460;28;20117;-57
2023/03/11 10:22:10;;;;;;;2.65;0.68;;;2.80;94.00;;;;;;5015613;28;20472;-57
2023/03/11 10:24:39;;;;;;;3.17;0.85;;;2.70;92.40;;;;;;4999617;28;20096;-59
2023/03/11 10:27:30;;;;;;;1.05;0.70;;;2.60;92.70;;;;;;5015880;28;20025;-58
2023/03/11 10:30:01;;;;;;;7.07;1.38;;;2.70;93.30;;;;;;5008447;28;20025;-58
2023/03/11 10:32:45;;;;;;;1.27;1.10;;;2.70;94.40;;;;;;5003650;28;20170;-57
2023/03/11 10:35:22;;;;;;;1.30;0.82;;;3.00;92.70;;;;;;5005317;28;20026;-57
2023/03/11 10:38:02;;;;;;;2.22;1.25;;;3.30;92.10;;;;;;5003112;28;20030;-57
2023/03/11 10:40:34;;;;;;;3.28;0.63;;;3.60;90.90;;;;;;5003486;28;20502;-57
2023/03/11 10:43:04;;;;;;;1.17;0.68;;;3.90;88.40;;;;;;5012514;28;20029;-57
2023/03/11 10:45:36;;;;;;;2.88;0.80;;;4.10;87.80;;;;;;4999373;28;20565;-57
2023/03/11 10:48:11;;;;;;;1.10;0.80;;;4.10;87.60;;;;;;5016525;28;20034;-57
2023/03/11 10:50:48;;;;;;;1.50;0.50;;;4.10;88.30;;;;;;5004718;28;20026;-58
2023/03/11 10:53:18;;;;;;;3.33;1.48;;;4.20;86.80;;;;;;5007543;28;20044;-58
2023/03/11 10:55:50;;;;;;;2.67;1.00;;;4.30;87.90;;;;;;5012177;28;20046;-56
2023/03/11 10:58:19;;;;;;;1.45;0.90;;;4.40;86.60;;;;;;4998764;28;20045;-59
2023/03/11 11:00:45;;;;;;;8.05;1.40;;;4.40;86.30;;;;;;5016965;28;20022;-60
2023/03/11 11:03:23;;;;;;;0.73;0.43;;;4.60;85.60;;;;;;4997489;28;20044;-57
2023/03/11 11:05:58;;;;;;;0.68;0.60;;;4.70;87.30;;;;;;5016867;28;20502;-58
2023/03/11 11:08:24;;;;;;;0.73;0.50;;;5.10;84.30;;;;;;5003596;28;20066;-57
2023/03/11 11:10:56;;;;;;;0.60;0.60;;;5.20;81.60;;;;;;5006668;28;20037;-57
2023/03/11 11:13:24;;;;;;;1.02;0.50;;;5.30;82.90;;;;;;5013304;28;20450;-58
2023/03/11 11:15:54;;;;;;;2.33;0.73;;;5.20;80.90;;;;;;4998665;28;20065;-59
2023/03/11 11:18:22;;;;;;;3.25;0.60;;;5.00;78.80;;;;;;5014927;28;20050;-60
2023/03/11 11:21:01;;;;;;;2.50;0.90;;;4.70;79.90;;;;;;5002017;28;20134;-58
2023/03/11 11:23:30;;;;;;;2.53;1.33;;;4.50;79.40;;;;;;5009191;28;20037;-60
2023/03/11 11:25:59;;;;;;;0.70;0.68;;;4.40;81.00;;;;;;5004644;28;20027;-57
2023/03/11 11:28:25;;;;;;;0.73;0.45;;;4.20;75.70;;;;;;5004330;28;20581;-58
2023/03/11 11:30:57;;;;;;;1.25;0.32;;;4.10;76.10;;;;;;5015661;28;20061;-58
2023/03/11 11:33:49;;;;;;;0.80;0.50;;;4.00;76.50;;;;;;5000598;28;20034;-57
2023/03/11 11:36:16;;;;;;;2.03;0.50;;;3.90;78.50;;;;;;4995297;28;20050;-58
2023/03/11 11:38:42;;;;;;;24.42;7.35;;;3.70;80.00;;;;;;5012043;28;20080;-59
2023/03/11 11:41:15;;;;;;;1.42;0.70;;;3.60;79.90;;;;;;5003582;28;20038;-57
2023/03/11 11:43:56;;;;;;;2.80;1.45;;;3.60;82.00;;;;;;5004969;28;20037;-58
2023/03/11 11:46:40;;;;;;;0.60;0.40;;;3.70;81.40;;;;;;5010057;28;20058;-58
2023/03/11 11:49:26;;;;;;;2.00;0.82;;;3.90;79.90;;;;;;4998466;28;20026;-58
2023/03/11 11:52:03;;;;;;;2.78;1.13;;;4.00;81.60;;;;;;5013261;28;20022;-59
2023/03/11 11:55:12;;;;;;;1.15;0.60;;;4.10;80.80;;;;;;4997620;28;20022;-59
2023/03/11 11:57:37;;;;;;;2.35;1.85;;;4.30;80.10;;;;;;4994960;28;20046;-57
2023/03/11 12:00:10;;;;;;;1.30;0.68;;;4.40;81.40;;;;;;5013693;28;20437;-59
2023/03/11 12:02:57;;;;;;;1.08;0.60;;;4.40;80.90;;;;;;4997338;28;20092;-57
2023/03/11 12:05:33;;;;;;;2.85;0.80;;;4.30;79.60;;;;;;5009349;28;20029;-58
2023/03/11 12:08:22;;;;;;;0.73;0.68;;;4.00;80.70;;;;;;5005333;28;20029;-59
2023/03/11 12:11:02;;;;;;;1.48;0.80;;;3.80;81.20;;;;;;5001909;28;20502;-58
2023/03/11 12:13:48;;;;;;;2.33;1.38;;;3.80;83.10;;;;;;5005957;28;20057;-60
2023/03/11 12:16:21;;;;;;;1.40;0.70;;;3.80;84.80;;;;;;5000155;28;20477;-59
2023/03/11 12:18:49;;;;;;;2.92;1.20;;;3.80;81.80;;;;;;5013517;28;20026;-58
2023/03/11 12:21:39;;;;;;;0.70;0.60;;;3.70;83.20;;;;;;4995192;28;20022;-57
2023/03/11 12:24:26;;;;;;;2.80;1.10;;;3.70;84.50;;;;;;5012759;28;20033;-58
2023/03/11 12:26:57;;;;;;;0.60;0.60;;;3.80;85.50;;;;;;4994629;28;20085;-56
2023/03/11 12:29:45;;;;;;;0.75;0.57;;;3.90;86.60;;;;;;5010494;28;20034;-59
2023/03/11 12:32:32;;;;;;;2.15;0.70;;;4.00;85.70;;;;;;4999035;28;20775;-58
2023/03/11 12:35:19;;;;;;;1.10;0.68;;;4.00;84.20;;;;;;5004774;28;20034;-58
2023/03/11 12:37:54;;;;;;;5.35;1.90;;;3.90;83.60;;;;;;5018395;28;20456;-58
2023/03/11 12:40:45;;;;;;;2.83;1.52;;;3.90;86.30;;;;;;4998629;28;20466;-58
2023/03/11 12:43:34;;;;;;;1.15;0.80;;;4.00;85.90;;;;;;4998266;28;20034;-58
2023/03/11 12:46:04;;;;;;;2.00;1.08;;;4.00;85.20;;;;;;4985107;28;20100;-58
2023/03/11 12:48:48;;;;;;;6.13;2.70;;;3.90;85.80;;;;;;5000980;28;20023;-58
2023/03/11 12:51:26;;;;;;;3.33;0.88;;;3.70;85.80;;;;;;4998589;28;20285;-58
2023/03/11 12:53:55;;;;;;;6.43;1.35;;;3.50;86.70;;;;;;5018865;28;20022;-59
2023/03/11 12:56:43;;;;;;;6.75;1.50;;;3.40;88.00;;;;;;5001990;28;20027;-60
2023/03/11 12:59:14;;;;;;;2.60;1.10;;;3.20;87.80;;;;;;5009551;28;20198;-60
2023/03/11 13:02:03;;;;;;;4.57;2.00;;;3.20;88.30;;;;;;5011382;28;20034;-60
2023/03/11 13:04:59;;;;;;;1.70;1.27;;;3.10;88.60;;;;;;4992889;28;20033;-59
2023/03/11 13:07:46;;;;;;;2.38;1.90;;;3.10;88.00;;;;;;5008831;28;20105;-59
2023/03/11 13:10:33;;;;;;;2.42;2.08;;;3.10;89.20;;;;;;5000594;28;20038;-58